sensor_id;sensor_type;location;lat;lon;timestamp;P1;durP1;ratioP1;P2;durP2;ratioP2
23578;SDS011;11967;50.852;4.400;2022-08-19T00:01:23;19.17;;;15.50;;
23578;SDS011;11967;50.852;4.400;2022-08-19T00:03:49;13.13;;;10.73;;
23578;SDS011;11967;50.852;4.400;2022-08-19T00:06:15;18.23;;;15.35;;
23578;SDS011;11967;50.852;4.400;2022-08-19T00:08:42;10.05;;;7.78;;
23578;SDS011;11967;50.852;4.400;2022-08-19T00:11:08;16.35;;;13.65;;
23578;SDS011;11967;50.852;4.400;2022-08-19T00:13:34;14.30;;;12.15;;
23578;SDS011;11967;50.852;4.400;2022-08-19T00:16:00;20.40;;;16.48;;
23578;SDS011;11967;50.852;4.400;2022-08-19T00:18:26;21.42;;;15.52;;
23578;SDS011;11967;50.852;4.400;2022-08-19T00:20:52;13.50;;;11.80;;
23578;SDS011;11967;50.852;4.400;2022-08-19T00:23:18;19.17;;;13.20;;
23578;SDS011;11967;50.852;4.400;2022-08-19T00:25:45;30.15;;;24.08;;
23578;SDS011;11967;50.852;4.400;2022-08-19T00:28:10;30.90;;;22.35;;
23578;SDS011;11967;50.852;4.400;2022-08-19T00:30:36;35.28;;;26.95;;
23578;SDS011;11967;50.852;4.400;2022-08-19T00:33:02;29.45;;;22.20;;
23578;SDS011;11967;50.852;4.400;2022-08-19T00:35:28;29.92;;;21.92;;
23578;SDS011;11967;50.852;4.400;2022-08-19T00:37:54;37.20;;;27.00;;
23578;SDS011;11967;50.852;4.400;2022-08-19T00:40:20;48.20;;;31.60;;
23578;SDS011;11967;50.852;4.400;2022-08-19T00:42:47;36.53;;;25.83;;
23578;SDS011;11967;50.852;4.400;2022-08-19T00:45:20;40.85;;;30.40;;
23578;SDS011;11967;50.852;4.400;2022-08-19T00:47:50;33.85;;;23.45;;
23578;SDS011;11967;50.852;4.400;2022-08-19T00:50:17;42.97;;;30.75;;
23578;SDS011;11967;50.852;4.400;2022-08-19T00:52:47;45.55;;;31.75;;
23578;SDS011;11967;50.852;4.400;2022-08-19T00:55:16;53.67;;;36.92;;
23578;SDS011;11967;50.852;4.400;2022-08-19T00:57:46;45.35;;;32.72;;
23578;SDS011;11967;50.852;4.400;2022-08-19T01:00:17;54.30;;;36.78;;
23578;SDS011;11967;50.852;4.400;2022-08-19T01:02:44;49.90;;;35.75;;
23578;SDS011;11967;50.852;4.400;2022-08-19T01:05:13;49.30;;;36.78;;
23578;SDS011;11967;50.852;4.400;2022-08-19T01:07:43;33.78;;;24.90;;
23578;SDS011;11967;50.852;4.400;2022-08-19T01:10:11;36.10;;;25.98;;
23578;SDS011;11967;50.852;4.400;2022-08-19T01:12:40;46.17;;;33.10;;
23578;SDS011;11967;50.852;4.400;2022-08-19T01:15:07;48.17;;;34.38;;
23578;SDS011;11967;50.852;4.400;2022-08-19T01:17:35;29.80;;;22.05;;
23578;SDS011;11967;50.852;4.400;2022-08-19T01:20:04;37.13;;;26.00;;
23578;SDS011;11967;50.852;4.400;2022-08-19T01:22:34;47.45;;;34.55;;
23578;SDS011;11967;50.852;4.400;2022-08-19T01:25:10;38.28;;;28.50;;
23578;SDS011;11967;50.852;4.400;2022-08-19T01:27:42;36.45;;;27.23;;
23578;SDS011;11967;50.852;4.400;2022-08-19T01:30:11;43.67;;;30.80;;
23578;SDS011;11967;50.852;4.400;2022-08-19T01:32:38;36.70;;;26.35;;
23578;SDS011;11967;50.852;4.400;2022-08-19T01:35:04;32.90;;;24.58;;
23578;SDS011;11967;50.852;4.400;2022-08-19T01:37:40;28.38;;;22.10;;
23578;SDS011;11967;50.852;4.400;2022-08-19T01:40:12;30.40;;;21.05;;
23578;SDS011;11967;50.852;4.400;2022-08-19T01:42:38;35.70;;;27.90;;
23578;SDS011;11967;50.852;4.400;2022-08-19T01:45:04;34.55;;;25.83;;
23578;SDS011;11967;50.852;4.400;2022-08-19T01:47:33;24.40;;;20.40;;
23578;SDS011;11967;50.852;4.400;2022-08-19T01:50:01;31.08;;;23.00;;
23578;SDS011;11967;50.852;4.400;2022-08-19T01:52:27;32.20;;;24.73;;
23578;SDS011;11967;50.852;4.400;2022-08-19T01:54:53;29.38;;;23.10;;
23578;SDS011;11967;50.852;4.400;2022-08-19T01:57:19;26.83;;;19.52;;
23578;SDS011;11967;50.852;4.400;2022-08-19T01:59:45;25.70;;;20.48;;
23578;SDS011;11967;50.852;4.400;2022-08-19T02:02:11;23.90;;;17.63;;
23578;SDS011;11967;50.852;4.400;2022-08-19T02:04:37;30.98;;;23.55;;
23578;SDS011;11967;50.852;4.400;2022-08-19T02:07:04;24.45;;;19.73;;
23578;SDS011;11967;50.852;4.400;2022-08-19T02:09:30;27.10;;;20.73;;
23578;SDS011;11967;50.852;4.400;2022-08-19T02:11:57;30.10;;;22.92;;
23578;SDS011;11967;50.852;4.400;2022-08-19T02:14:23;29.52;;;23.70;;
23578;SDS011;11967;50.852;4.400;2022-08-19T02:16:49;25.00;;;19.20;;
23578;SDS011;11967;50.852;4.400;2022-08-19T02:19:14;20.20;;;16.50;;
23578;SDS011;11967;50.852;4.400;2022-08-19T02:21:40;22.20;;;16.20;;
23578;SDS011;11967;50.852;4.400;2022-08-19T02:24:06;17.40;;;14.60;;
23578;SDS011;11967;50.852;4.400;2022-08-19T02:26:32;20.00;;;15.70;;
23578;SDS011;11967;50.852;4.400;2022-08-19T02:28:58;23.15;;;16.83;;
23578;SDS011;11967;50.852;4.400;2022-08-19T02:31:25;26.63;;;21.08;;
23578;SDS011;11967;50.852;4.400;2022-08-19T02:33:52;24.45;;;19.38;;
23578;SDS011;11967;50.852;4.400;2022-08-19T02:36:20;30.65;;;19.67;;
23578;SDS011;11967;50.852;4.400;2022-08-19T02:38:46;29.45;;;22.80;;
23578;SDS011;11967;50.852;4.400;2022-08-19T02:41:13;26.85;;;20.67;;
23578;SDS011;11967;50.852;4.400;2022-08-19T02:43:41;26.38;;;21.20;;
23578;SDS011;11967;50.852;4.400;2022-08-19T02:46:11;26.75;;;19.73;;
23578;SDS011;11967;50.852;4.400;2022-08-19T02:48:43;26.67;;;19.13;;
23578;SDS011;11967;50.852;4.400;2022-08-19T02:51:08;24.70;;;18.23;;
23578;SDS011;11967;50.852;4.400;2022-08-19T02:53:40;23.00;;;17.45;;
23578;SDS011;11967;50.852;4.400;2022-08-19T02:56:06;22.33;;;16.85;;
23578;SDS011;11967;50.852;4.400;2022-08-19T02:58:32;25.35;;;18.20;;
23578;SDS011;11967;50.852;4.400;2022-08-19T03:00:58;32.72;;;21.90;;
23578;SDS011;11967;50.852;4.400;2022-08-19T03:03:24;25.83;;;19.38;;
23578;SDS011;11967;50.852;4.400;2022-08-19T03:05:50;26.63;;;20.80;;
23578;SDS011;11967;50.852;4.400;2022-08-19T03:08:16;24.45;;;18.33;;
23578;SDS011;11967;50.852;4.400;2022-08-19T03:10:42;21.58;;;15.75;;
23578;SDS011;11967;50.852;4.400;2022-08-19T03:13:12;25.90;;;17.58;;
23578;SDS011;11967;50.852;4.400;2022-08-19T03:15:44;20.63;;;14.90;;
23578;SDS011;11967;50.852;4.400;2022-08-19T03:18:12;26.63;;;17.30;;
23578;SDS011;11967;50.852;4.400;2022-08-19T03:20:45;28.27;;;19.27;;
23578;SDS011;11967;50.852;4.400;2022-08-19T03:23:13;28.75;;;19.58;;
23578;SDS011;11967;50.852;4.400;2022-08-19T03:25:40;28.20;;;20.33;;
23578;SDS011;11967;50.852;4.400;2022-08-19T03:28:08;24.13;;;17.33;;
23578;SDS011;11967;50.852;4.400;2022-08-19T03:30:35;23.85;;;17.15;;
23578;SDS011;11967;50.852;4.400;2022-08-19T03:33:00;24.65;;;17.90;;
23578;SDS011;11967;50.852;4.400;2022-08-19T03:35:27;27.67;;;19.98;;
23578;SDS011;11967;50.852;4.400;2022-08-19T03:37:52;24.45;;;16.48;;
23578;SDS011;11967;50.852;4.400;2022-08-19T03:40:18;17.42;;;12.50;;
23578;SDS011;11967;50.852;4.400;2022-08-19T03:42:44;27.52;;;18.30;;
23578;SDS011;11967;50.852;4.400;2022-08-19T03:45:11;20.10;;;13.43;;
23578;SDS011;11967;50.852;4.400;2022-08-19T03:47:37;24.33;;;15.98;;
23578;SDS011;11967;50.852;4.400;2022-08-19T03:50:03;26.23;;;16.75;;
23578;SDS011;11967;50.852;4.400;2022-08-19T03:52:29;24.20;;;16.30;;
23578;SDS011;11967;50.852;4.400;2022-08-19T03:54:55;21.23;;;14.40;;
23578;SDS011;11967;50.852;4.400;2022-08-19T03:57:20;20.33;;;16.38;;
23578;SDS011;11967;50.852;4.400;2022-08-19T03:59:46;20.83;;;13.60;;
23578;SDS011;11967;50.852;4.400;2022-08-19T04:02:12;24.45;;;16.15;;
23578;SDS011;11967;50.852;4.400;2022-08-19T04:04:39;24.10;;;17.60;;
23578;SDS011;11967;50.852;4.400;2022-08-19T04:07:06;20.08;;;14.95;;
23578;SDS011;11967;50.852;4.400;2022-08-19T04:09:34;24.77;;;18.40;;
23578;SDS011;11967;50.852;4.400;2022-08-19T04:12:01;25.40;;;16.85;;
23578;SDS011;11967;50.852;4.400;2022-08-19T04:14:30;30.52;;;19.17;;
23578;SDS011;11967;50.852;4.400;2022-08-19T04:16:57;28.73;;;18.85;;
23578;SDS011;11967;50.852;4.400;2022-08-19T04:19:24;27.33;;;18.10;;
23578;SDS011;11967;50.852;4.400;2022-08-19T04:21:51;25.92;;;17.38;;
23578;SDS011;11967;50.852;4.400;2022-08-19T04:24:18;21.75;;;15.07;;
23578;SDS011;11967;50.852;4.400;2022-08-19T04:26:44;26.45;;;16.38;;
23578;SDS011;11967;50.852;4.400;2022-08-19T04:29:12;24.10;;;15.30;;
23578;SDS011;11967;50.852;4.400;2022-08-19T04:31:40;23.13;;;15.20;;
23578;SDS011;11967;50.852;4.400;2022-08-19T04:34:09;28.80;;;17.63;;
23578;SDS011;11967;50.852;4.400;2022-08-19T04:36:36;27.05;;;16.58;;
23578;SDS011;11967;50.852;4.400;2022-08-19T04:39:06;21.13;;;13.00;;
23578;SDS011;11967;50.852;4.400;2022-08-19T04:41:34;22.50;;;13.80;;
23578;SDS011;11967;50.852;4.400;2022-08-19T04:44:19;28.30;;;14.15;;
23578;SDS011;11967;50.852;4.400;2022-08-19T04:46:45;14.63;;;10.60;;
23578;SDS011;11967;50.852;4.400;2022-08-19T04:49:15;15.75;;;8.98;;
23578;SDS011;11967;50.852;4.400;2022-08-19T04:51:42;19.33;;;12.30;;
23578;SDS011;11967;50.852;4.400;2022-08-19T04:54:13;17.13;;;11.65;;
23578;SDS011;11967;50.852;4.400;2022-08-19T04:56:39;15.35;;;9.15;;
23578;SDS011;11967;50.852;4.400;2022-08-19T04:59:06;19.00;;;10.50;;
23578;SDS011;11967;50.852;4.400;2022-08-19T05:01:33;17.25;;;11.95;;
23578;SDS011;11967;50.852;4.400;2022-08-19T05:04:00;17.58;;;10.75;;
23578;SDS011;11967;50.852;4.400;2022-08-19T05:06:29;20.20;;;11.63;;
23578;SDS011;11967;50.852;4.400;2022-08-19T05:08:57;10.52;;;7.25;;
23578;SDS011;11967;50.852;4.400;2022-08-19T05:11:25;18.10;;;10.98;;
23578;SDS011;11967;50.852;4.400;2022-08-19T05:13:53;19.88;;;10.77;;
23578;SDS011;11967;50.852;4.400;2022-08-19T05:16:20;19.13;;;11.10;;
23578;SDS011;11967;50.852;4.400;2022-08-19T05:18:47;19.05;;;10.50;;
23578;SDS011;11967;50.852;4.400;2022-08-19T05:21:32;16.80;;;9.25;;
23578;SDS011;11967;50.852;4.400;2022-08-19T05:24:17;13.85;;;8.70;;
23578;SDS011;11967;50.852;4.400;2022-08-19T05:26:45;15.90;;;8.55;;
23578;SDS011;11967;50.852;4.400;2022-08-19T05:29:13;14.70;;;9.20;;
23578;SDS011;11967;50.852;4.400;2022-08-19T05:31:40;16.35;;;8.57;;
23578;SDS011;11967;50.852;4.400;2022-08-19T05:34:06;25.20;;;10.63;;
23578;SDS011;11967;50.852;4.400;2022-08-19T05:36:37;16.70;;;9.18;;
23578;SDS011;11967;50.852;4.400;2022-08-19T05:39:04;24.45;;;11.63;;
23578;SDS011;11967;50.852;4.400;2022-08-19T05:41:32;22.35;;;11.10;;
23578;SDS011;11967;50.852;4.400;2022-08-19T05:43:58;20.50;;;11.38;;
23578;SDS011;11967;50.852;4.400;2022-08-19T05:46:27;20.88;;;12.00;;
23578;SDS011;11967;50.852;4.400;2022-08-19T05:48:53;15.52;;;9.68;;
23578;SDS011;11967;50.852;4.400;2022-08-19T05:51:21;21.90;;;11.90;;
23578;SDS011;11967;50.852;4.400;2022-08-19T05:53:47;15.68;;;10.18;;
23578;SDS011;11967;50.852;4.400;2022-08-19T05:56:14;18.35;;;10.98;;
23578;SDS011;11967;50.852;4.400;2022-08-19T05:58:41;23.80;;;12.05;;
23578;SDS011;11967;50.852;4.400;2022-08-19T06:01:10;11.85;;;7.75;;
23578;SDS011;11967;50.852;4.400;2022-08-19T06:03:40;19.27;;;10.63;;
23578;SDS011;11967;50.852;4.400;2022-08-19T06:06:07;14.65;;;10.35;;
23578;SDS011;11967;50.852;4.400;2022-08-19T06:08:35;19.50;;;10.77;;
23578;SDS011;11967;50.852;4.400;2022-08-19T06:11:13;16.58;;;9.20;;
23578;SDS011;11967;50.852;4.400;2022-08-19T06:13:52;13.23;;;8.82;;
23578;SDS011;11967;50.852;4.400;2022-08-19T06:16:19;14.30;;;8.50;;
23578;SDS011;11967;50.852;4.400;2022-08-19T06:18:47;10.98;;;6.80;;
23578;SDS011;11967;50.852;4.400;2022-08-19T06:21:17;15.80;;;8.68;;
23578;SDS011;11967;50.852;4.400;2022-08-19T06:23:47;13.07;;;8.45;;
23578;SDS011;11967;50.852;4.400;2022-08-19T06:26:14;15.60;;;9.00;;
23578;SDS011;11967;50.852;4.400;2022-08-19T06:28:55;16.48;;;8.50;;
23578;SDS011;11967;50.852;4.400;2022-08-19T06:31:35;9.80;;;6.18;;
23578;SDS011;11967;50.852;4.400;2022-08-19T06:34:02;10.25;;;6.60;;
23578;SDS011;11967;50.852;4.400;2022-08-19T06:36:30;12.48;;;6.63;;
23578;SDS011;11967;50.852;4.400;2022-08-19T06:39:02;13.95;;;6.78;;
23578;SDS011;11967;50.852;4.400;2022-08-19T06:41:39;14.30;;;8.30;;
23578;SDS011;11967;50.852;4.400;2022-08-19T06:44:10;15.25;;;8.23;;
23578;SDS011;11967;50.852;4.400;2022-08-19T06:46:37;16.75;;;8.00;;
23578;SDS011;11967;50.852;4.400;2022-08-19T06:49:04;16.23;;;7.78;;
23578;SDS011;11967;50.852;4.400;2022-08-19T06:51:30;16.27;;;7.28;;
23578;SDS011;11967;50.852;4.400;2022-08-19T06:53:57;16.55;;;7.57;;
23578;SDS011;11967;50.852;4.400;2022-08-19T06:56:28;13.23;;;8.27;;
23578;SDS011;11967;50.852;4.400;2022-08-19T06:58:59;21.58;;;8.48;;
23578;SDS011;11967;50.852;4.400;2022-08-19T07:01:28;17.80;;;8.60;;
23578;SDS011;11967;50.852;4.400;2022-08-19T07:03:54;15.30;;;8.00;;
23578;SDS011;11967;50.852;4.400;2022-08-19T07:06:21;15.95;;;8.02;;
23578;SDS011;11967;50.852;4.400;2022-08-19T07:08:47;15.35;;;7.93;;
23578;SDS011;11967;50.852;4.400;2022-08-19T07:11:15;17.17;;;8.35;;
23578;SDS011;11967;50.852;4.400;2022-08-19T07:13:46;19.70;;;9.00;;
23578;SDS011;11967;50.852;4.400;2022-08-19T07:16:14;16.58;;;8.10;;
23578;SDS011;11967;50.852;4.400;2022-08-19T07:18:41;15.32;;;8.32;;
23578;SDS011;11967;50.852;4.400;2022-08-19T07:23:35;13.75;;;7.50;;
23578;SDS011;11967;50.852;4.400;2022-08-19T07:26:07;16.05;;;6.95;;
23578;SDS011;11967;50.852;4.400;2022-08-19T07:28:35;12.43;;;6.43;;
23578;SDS011;11967;50.852;4.400;2022-08-19T07:31:05;14.18;;;7.47;;
23578;SDS011;11967;50.852;4.400;2022-08-19T07:33:32;10.38;;;6.90;;
23578;SDS011;11967;50.852;4.400;2022-08-19T07:35:58;10.93;;;5.93;;
23578;SDS011;11967;50.852;4.400;2022-08-19T07:38:24;11.55;;;6.57;;
23578;SDS011;11967;50.852;4.400;2022-08-19T07:40:50;13.93;;;6.95;;
23578;SDS011;11967;50.852;4.400;2022-08-19T07:43:16;11.88;;;5.38;;
23578;SDS011;11967;50.852;4.400;2022-08-19T07:45:45;13.52;;;6.47;;
23578;SDS011;11967;50.852;4.400;2022-08-19T07:48:11;14.77;;;5.55;;
23578;SDS011;11967;50.852;4.400;2022-08-19T07:50:37;13.40;;;5.68;;
23578;SDS011;11967;50.852;4.400;2022-08-19T07:53:03;14.68;;;5.80;;
23578;SDS011;11967;50.852;4.400;2022-08-19T07:55:29;13.82;;;5.75;;
23578;SDS011;11967;50.852;4.400;2022-08-19T07:57:55;10.30;;;5.07;;
23578;SDS011;11967;50.852;4.400;2022-08-19T08:00:21;11.68;;;4.88;;
23578;SDS011;11967;50.852;4.400;2022-08-19T08:02:47;10.95;;;6.80;;
23578;SDS011;11967;50.852;4.400;2022-08-19T08:05:12;9.38;;;6.35;;
23578;SDS011;11967;50.852;4.400;2022-08-19T08:07:56;11.63;;;6.00;;
23578;SDS011;11967;50.852;4.400;2022-08-19T08:10:40;12.95;;;4.70;;
23578;SDS011;11967;50.852;4.400;2022-08-19T08:13:07;12.07;;;6.28;;
23578;SDS011;11967;50.852;4.400;2022-08-19T08:15:33;10.82;;;5.50;;
23578;SDS011;11967;50.852;4.400;2022-08-19T08:17:58;10.50;;;5.57;;
23578;SDS011;11967;50.852;4.400;2022-08-19T08:20:24;9.73;;;4.95;;
23578;SDS011;11967;50.852;4.400;2022-08-19T08:22:50;10.50;;;5.57;;
23578;SDS011;11967;50.852;4.400;2022-08-19T08:25:35;8.73;;;4.72;;
23578;SDS011;11967;50.852;4.400;2022-08-19T08:28:01;11.45;;;5.38;;
23578;SDS011;11967;50.852;4.400;2022-08-19T08:30:29;8.13;;;4.97;;
23578;SDS011;11967;50.852;4.400;2022-08-19T08:32:57;10.68;;;5.97;;
23578;SDS011;11967;50.852;4.400;2022-08-19T08:35:23;8.63;;;4.60;;
23578;SDS011;11967;50.852;4.400;2022-08-19T08:37:50;9.45;;;5.13;;
23578;SDS011;11967;50.852;4.400;2022-08-19T08:43:26;9.50;;;5.28;;
23578;SDS011;11967;50.852;4.400;2022-08-19T08:46:12;11.55;;;5.82;;
23578;SDS011;11967;50.852;4.400;2022-08-19T08:48:57;9.32;;;4.43;;
23578;SDS011;11967;50.852;4.400;2022-08-19T08:51:34;10.85;;;5.15;;
23578;SDS011;11967;50.852;4.400;2022-08-19T08:54:07;8.07;;;4.95;;
23578;SDS011;11967;50.852;4.400;2022-08-19T08:56:43;7.97;;;4.40;;
23578;SDS011;11967;50.852;4.400;2022-08-19T08:59:12;11.80;;;5.45;;
23578;SDS011;11967;50.852;4.400;2022-08-19T09:01:46;15.32;;;5.28;;
23578;SDS011;11967;50.852;4.400;2022-08-19T09:04:13;9.80;;;5.97;;
23578;SDS011;11967;50.852;4.400;2022-08-19T09:17:13;9.02;;;4.10;;
23578;SDS011;11967;50.852;4.400;2022-08-19T09:20:13;11.27;;;5.65;;
23578;SDS011;11967;50.852;4.400;2022-08-19T09:22:41;9.57;;;5.85;;
23578;SDS011;11967;50.852;4.400;2022-08-19T09:25:12;8.60;;;4.93;;
23578;SDS011;11967;50.852;4.400;2022-08-19T09:27:40;8.93;;;6.13;;
23578;SDS011;11967;50.852;4.400;2022-08-19T09:30:07;48.83;;;12.98;;
23578;SDS011;11967;50.852;4.400;2022-08-19T09:32:35;94.95;;;22.08;;
23578;SDS011;11967;50.852;4.400;2022-08-19T09:35:01;33.63;;;11.40;;
23578;SDS011;11967;50.852;4.400;2022-08-19T09:37:27;37.45;;;11.15;;
23578;SDS011;11967;50.852;4.400;2022-08-19T09:39:52;32.90;;;9.63;;
23578;SDS011;11967;50.852;4.400;2022-08-19T09:42:18;31.08;;;9.50;;
23578;SDS011;11967;50.852;4.400;2022-08-19T09:44:44;20.63;;;7.57;;
23578;SDS011;11967;50.852;4.400;2022-08-19T09:47:11;14.75;;;6.55;;
23578;SDS011;11967;50.852;4.400;2022-08-19T09:49:38;14.20;;;6.72;;
23578;SDS011;11967;50.852;4.400;2022-08-19T09:52:05;22.08;;;7.72;;
23578;SDS011;11967;50.852;4.400;2022-08-19T09:54:33;18.65;;;6.82;;
23578;SDS011;11967;50.852;4.400;2022-08-19T09:57:00;13.40;;;6.18;;
23578;SDS011;11967;50.852;4.400;2022-08-19T09:59:26;11.65;;;5.95;;
23578;SDS011;11967;50.852;4.400;2022-08-19T10:01:52;74.25;;;14.70;;
23578;SDS011;11967;50.852;4.400;2022-08-19T10:04:18;90.68;;;28.00;;
23578;SDS011;11967;50.852;4.400;2022-08-19T10:06:46;47.67;;;14.68;;
23578;SDS011;11967;50.852;4.400;2022-08-19T10:09:13;29.33;;;9.70;;
23578;SDS011;11967;50.852;4.400;2022-08-19T10:11:41;25.30;;;10.10;;
23578;SDS011;11967;50.852;4.400;2022-08-19T10:14:10;36.38;;;12.02;;
23578;SDS011;11967;50.852;4.400;2022-08-19T10:16:36;16.85;;;7.75;;
23578;SDS011;11967;50.852;4.400;2022-08-19T10:19:03;55.55;;;14.05;;
23578;SDS011;11967;50.852;4.400;2022-08-19T10:21:30;38.38;;;11.43;;
23578;SDS011;11967;50.852;4.400;2022-08-19T10:23:58;10.32;;;5.82;;
23578;SDS011;11967;50.852;4.400;2022-08-19T10:26:34;11.13;;;5.90;;
23578;SDS011;11967;50.852;4.400;2022-08-19T10:29:02;8.85;;;4.80;;
23578;SDS011;11967;50.852;4.400;2022-08-19T10:31:30;7.93;;;5.88;;
23578;SDS011;11967;50.852;4.400;2022-08-19T10:33:58;7.75;;;5.50;;
23578;SDS011;11967;50.852;4.400;2022-08-19T10:36:30;8.95;;;5.60;;
23578;SDS011;11967;50.852;4.400;2022-08-19T10:39:00;9.07;;;6.28;;
23578;SDS011;11967;50.852;4.400;2022-08-19T10:41:29;10.07;;;7.18;;
23578;SDS011;11967;50.852;4.400;2022-08-19T10:43:58;13.93;;;7.25;;
23578;SDS011;11967;50.852;4.400;2022-08-19T10:46:28;11.57;;;6.80;;
23578;SDS011;11967;50.852;4.400;2022-08-19T10:48:57;10.20;;;6.65;;
23578;SDS011;11967;50.852;4.400;2022-08-19T10:51:24;9.98;;;6.82;;
23578;SDS011;11967;50.852;4.400;2022-08-19T10:54:08;9.02;;;6.28;;
23578;SDS011;11967;50.852;4.400;2022-08-19T10:56:33;10.90;;;6.40;;
23578;SDS011;11967;50.852;4.400;2022-08-19T10:59:19;11.38;;;7.55;;
23578;SDS011;11967;50.852;4.400;2022-08-19T11:01:47;9.30;;;7.53;;
23578;SDS011;11967;50.852;4.400;2022-08-19T11:04:13;12.18;;;7.57;;
23578;SDS011;11967;50.852;4.400;2022-08-19T11:06:42;13.80;;;7.72;;
23578;SDS011;11967;50.852;4.400;2022-08-19T11:09:12;13.45;;;7.80;;
23578;SDS011;11967;50.852;4.400;2022-08-19T11:11:52;11.43;;;7.47;;
23578;SDS011;11967;50.852;4.400;2022-08-19T11:14:18;9.05;;;7.43;;
23578;SDS011;11967;50.852;4.400;2022-08-19T11:16:46;11.30;;;8.32;;
23578;SDS011;11967;50.852;4.400;2022-08-19T11:19:13;8.93;;;6.07;;
23578;SDS011;11967;50.852;4.400;2022-08-19T11:21:42;12.70;;;7.40;;
23578;SDS011;11967;50.852;4.400;2022-08-19T11:24:14;9.48;;;6.40;;
23578;SDS011;11967;50.852;4.400;2022-08-19T11:26:45;10.90;;;6.07;;
23578;SDS011;11967;50.852;4.400;2022-08-19T11:29:14;9.23;;;5.78;;
23578;SDS011;11967;50.852;4.400;2022-08-19T11:31:42;7.80;;;5.85;;
23578;SDS011;11967;50.852;4.400;2022-08-19T11:34:11;10.70;;;6.85;;
23578;SDS011;11967;50.852;4.400;2022-08-19T11:36:40;10.95;;;7.95;;
23578;SDS011;11967;50.852;4.400;2022-08-19T11:39:07;13.30;;;9.70;;
23578;SDS011;11967;50.852;4.400;2022-08-19T11:41:34;14.07;;;10.13;;
23578;SDS011;11967;50.852;4.400;2022-08-19T11:44:00;15.48;;;9.85;;
23578;SDS011;11967;50.852;4.400;2022-08-19T11:46:28;15.88;;;9.82;;
23578;SDS011;11967;50.852;4.400;2022-08-19T11:48:54;12.75;;;9.38;;
23578;SDS011;11967;50.852;4.400;2022-08-19T11:51:24;13.70;;;9.27;;
23578;SDS011;11967;50.852;4.400;2022-08-19T11:53:51;12.05;;;9.38;;
23578;SDS011;11967;50.852;4.400;2022-08-19T11:56:18;11.80;;;9.25;;
23578;SDS011;11967;50.852;4.400;2022-08-19T11:58:45;12.43;;;8.48;;
23578;SDS011;11967;50.852;4.400;2022-08-19T12:01:12;11.63;;;8.60;;
23578;SDS011;11967;50.852;4.400;2022-08-19T12:03:43;11.38;;;8.98;;
23578;SDS011;11967;50.852;4.400;2022-08-19T12:06:11;11.77;;;8.35;;
23578;SDS011;11967;50.852;4.400;2022-08-19T12:08:40;11.30;;;7.10;;
23578;SDS011;11967;50.852;4.400;2022-08-19T12:11:07;12.60;;;7.85;;
23578;SDS011;11967;50.852;4.400;2022-08-19T12:13:35;11.95;;;8.10;;
23578;SDS011;11967;50.852;4.400;2022-08-19T12:16:06;8.88;;;6.63;;
23578;SDS011;11967;50.852;4.400;2022-08-19T12:18:40;10.30;;;6.90;;
23578;SDS011;11967;50.852;4.400;2022-08-19T12:21:08;11.20;;;6.50;;
23578;SDS011;11967;50.852;4.400;2022-08-19T12:23:36;9.27;;;5.82;;
23578;SDS011;11967;50.852;4.400;2022-08-19T12:26:02;11.73;;;6.28;;
23578;SDS011;11967;50.852;4.400;2022-08-19T12:28:29;11.27;;;6.10;;
23578;SDS011;11967;50.852;4.400;2022-08-19T12:30:55;8.70;;;6.15;;
23578;SDS011;11967;50.852;4.400;2022-08-19T12:33:22;11.10;;;5.95;;
23578;SDS011;11967;50.852;4.400;2022-08-19T12:35:52;12.70;;;5.65;;
23578;SDS011;11967;50.852;4.400;2022-08-19T12:38:20;10.93;;;5.18;;
23578;SDS011;11967;50.852;4.400;2022-08-19T12:40:51;5.70;;;4.68;;
23578;SDS011;11967;50.852;4.400;2022-08-19T12:43:17;7.30;;;5.00;;
23578;SDS011;11967;50.852;4.400;2022-08-19T12:45:45;6.38;;;4.50;;
23578;SDS011;11967;50.852;4.400;2022-08-19T12:48:11;6.32;;;4.40;;
23578;SDS011;11967;50.852;4.400;2022-08-19T12:50:40;4.45;;;3.90;;
23578;SDS011;11967;50.852;4.400;2022-08-19T12:53:08;7.05;;;4.20;;
23578;SDS011;11967;50.852;4.400;2022-08-19T12:55:34;6.45;;;3.80;;
23578;SDS011;11967;50.852;4.400;2022-08-19T12:57:59;5.07;;;3.30;;
23578;SDS011;11967;50.852;4.400;2022-08-19T13:00:28;3.75;;;3.33;;
23578;SDS011;11967;50.852;4.400;2022-08-19T13:02:55;5.07;;;2.95;;
23578;SDS011;11967;50.852;4.400;2022-08-19T13:05:23;7.22;;;3.25;;
23578;SDS011;11967;50.852;4.400;2022-08-19T13:07:51;5.53;;;2.63;;
23578;SDS011;11967;50.852;4.400;2022-08-19T13:10:23;7.43;;;3.50;;
23578;SDS011;11967;50.852;4.400;2022-08-19T13:12:52;7.63;;;3.28;;
23578;SDS011;11967;50.852;4.400;2022-08-19T13:15:18;3.40;;;3.10;;
23578;SDS011;11967;50.852;4.400;2022-08-19T13:17:49;7.43;;;3.40;;
23578;SDS011;11967;50.852;4.400;2022-08-19T13:20:18;4.50;;;3.03;;
23578;SDS011;11967;50.852;4.400;2022-08-19T13:22:45;3.03;;;2.67;;
23578;SDS011;11967;50.852;4.400;2022-08-19T13:25:11;5.93;;;2.90;;
23578;SDS011;11967;50.852;4.400;2022-08-19T13:27:39;3.83;;;2.38;;
23578;SDS011;11967;50.852;4.400;2022-08-19T13:30:06;5.20;;;2.63;;
23578;SDS011;11967;50.852;4.400;2022-08-19T13:32:51;5.32;;;2.70;;
23578;SDS011;11967;50.852;4.400;2022-08-19T13:35:58;3.65;;;2.20;;
23578;SDS011;11967;50.852;4.400;2022-08-19T13:38:26;3.70;;;2.47;;
23578;SDS011;11967;50.852;4.400;2022-08-19T13:40:53;5.32;;;2.40;;
23578;SDS011;11967;50.852;4.400;2022-08-19T13:43:20;3.22;;;2.08;;
23578;SDS011;11967;50.852;4.400;2022-08-19T13:45:48;3.08;;;2.33;;
23578;SDS011;11967;50.852;4.400;2022-08-19T13:48:20;9.30;;;2.70;;
23578;SDS011;11967;50.852;4.400;2022-08-19T13:50:45;5.30;;;2.47;;
23578;SDS011;11967;50.852;4.400;2022-08-19T13:53:14;5.97;;;2.88;;
23578;SDS011;11967;50.852;4.400;2022-08-19T13:55:42;7.53;;;2.17;;
23578;SDS011;11967;50.852;4.400;2022-08-19T13:58:09;5.10;;;2.75;;
23578;SDS011;11967;50.852;4.400;2022-08-19T14:00:36;3.58;;;2.65;;
23578;SDS011;11967;50.852;4.400;2022-08-19T14:03:07;3.83;;;2.38;;
23578;SDS011;11967;50.852;4.400;2022-08-19T14:05:33;3.83;;;2.22;;
23578;SDS011;11967;50.852;4.400;2022-08-19T14:07:59;4.03;;;2.38;;
23578;SDS011;11967;50.852;4.400;2022-08-19T14:10:25;8.27;;;3.05;;
23578;SDS011;11967;50.852;4.400;2022-08-19T14:12:55;4.30;;;2.40;;
23578;SDS011;11967;50.852;4.400;2022-08-19T14:15:23;4.53;;;2.30;;
23578;SDS011;11967;50.852;4.400;2022-08-19T14:17:50;2.78;;;2.20;;
23578;SDS011;11967;50.852;4.400;2022-08-19T14:20:16;5.47;;;2.20;;
23578;SDS011;11967;50.852;4.400;2022-08-19T14:22:43;4.45;;;2.30;;
23578;SDS011;11967;50.852;4.400;2022-08-19T14:25:11;4.75;;;2.40;;
23578;SDS011;11967;50.852;4.400;2022-08-19T14:27:39;5.03;;;2.65;;
23578;SDS011;11967;50.852;4.400;2022-08-19T14:30:07;4.72;;;2.60;;
23578;SDS011;11967;50.852;4.400;2022-08-19T14:32:34;3.05;;;2.25;;
23578;SDS011;11967;50.852;4.400;2022-08-19T14:35:01;3.85;;;2.22;;
23578;SDS011;11967;50.852;4.400;2022-08-19T14:37:27;4.00;;;1.90;;
23578;SDS011;11967;50.852;4.400;2022-08-19T14:39:52;3.55;;;1.92;;
23578;SDS011;11967;50.852;4.400;2022-08-19T14:42:18;2.50;;;1.80;;
23578;SDS011;11967;50.852;4.400;2022-08-19T14:44:44;6.03;;;1.65;;
23578;SDS011;11967;50.852;4.400;2022-08-19T14:47:09;3.75;;;1.65;;
23578;SDS011;11967;50.852;4.400;2022-08-19T14:49:35;4.20;;;1.83;;
23578;SDS011;11967;50.852;4.400;2022-08-19T14:52:02;3.67;;;1.50;;
23578;SDS011;11967;50.852;4.400;2022-08-19T14:54:28;2.72;;;1.33;;
23578;SDS011;11967;50.852;4.400;2022-08-19T14:56:54;2.05;;;1.30;;